sensor_id;sensor_type;location;lat;lon;timestamp;pressure;altitude;pressure_sealevel;temperature;humidity
28665;BME280;15850;47.524;7.814;2023-05-29T00:01:35;97570.84;;;12.40;94.59
28665;BME280;15850;47.524;7.814;2023-05-29T00:04:00;97497.34;;;11.56;97.81
28665;BME280;15850;47.524;7.814;2023-05-29T00:06:26;97575.25;;;12.29;97.50
28665;BME280;15850;47.524;7.814;2023-05-29T00:08:51;97588.97;;;12.32;96.58
28665;BME280;15850;47.524;7.814;2023-05-29T00:11:17;97566.22;;;11.96;99.65
28665;BME280;15850;47.524;7.814;2023-05-29T00:13:42;97111.00;;;8.94;100.00
28665;BME280;15850;47.524;7.814;2023-05-29T00:16:09;97566.19;;;11.68;100.00
28665;BME280;15850;47.524;7.814;2023-05-29T00:18:35;97573.72;;;11.59;99.58
28665;BME280;15850;47.524;7.814;2023-05-29T00:21:00;97561.84;;;11.80;100.00
28665;BME280;15850;47.524;7.814;2023-05-29T00:23:26;96897.75;;;7.75;99.08
28665;BME280;15850;47.524;7.814;2023-05-29T00:25:51;97402.50;;;10.89;100.00
28665;BME280;15850;47.524;7.814;2023-05-29T00:28:17;97445.69;;;11.03;99.77
28665;BME280;15850;47.524;7.814;2023-05-29T00:30:43;97449.91;;;10.88;100.00
28665;BME280;15850;47.524;7.814;2023-05-29T00:33:10;97598.41;;;11.38;100.00
28665;BME280;15850;47.524;7.814;2023-05-29T00:35:35;97579.53;;;11.45;100.00
28665;BME280;15850;47.524;7.814;2023-05-29T00:38:01;97533.91;;;11.02;100.00
28665;BME280;15850;47.524;7.814;2023-05-29T00:40:26;97571.91;;;11.11;100.00
28665;BME280;15850;47.524;7.814;2023-05-29T00:42:52;97474.25;;;10.32;100.00
28665;BME280;15850;47.524;7.814;2023-05-29T00:45:17;97586.22;;;11.08;100.00
28665;BME280;15850;47.524;7.814;2023-05-29T00:47:43;97585.06;;;11.09;100.00
28665;BME280;15850;47.524;7.814;2023-05-29T00:50:12;97584.38;;;11.12;100.00
28665;BME280;15850;47.524;7.814;2023-05-29T00:52:40;97473.81;;;10.30;100.00
28665;BME280;15850;47.524;7.814;2023-05-29T00:55:07;97589.25;;;11.18;100.00
28665;BME280;15850;47.524;7.814;2023-05-29T00:57:33;97228.63;;;8.65;100.00
28665;BME280;15850;47.524;7.814;2023-05-29T01:00:00;97573.19;;;10.89;100.00
28665;BME280;15850;47.524;7.814;2023-05-29T01:02:26;97598.69;;;11.09;100.00
28665;BME280;15850;47.524;7.814;2023-05-29T01:04:53;97594.16;;;11.00;100.00
28665;BME280;15850;47.524;7.814;2023-05-29T01:07:20;97548.81;;;10.31;100.00
28665;BME280;15850;47.524;7.814;2023-05-29T01:09:46;97540.31;;;10.45;100.00
28665;BME280;15850;47.524;7.814;2023-05-29T01:12:23;97589.28;;;10.69;100.00
28665;BME280;15850;47.524;7.814;2023-05-29T01:15:01;97585.56;;;10.86;100.00
28665;BME280;15850;47.524;7.814;2023-05-29T01:17:37;97102.19;;;7.48;100.00
28665;BME280;15850;47.524;7.814;2023-05-29T01:20:23;97583.84;;;10.81;100.00
28665;BME280;15850;47.524;7.814;2023-05-29T01:23:07;97574.53;;;10.95;100.00
28665;BME280;15850;47.524;7.814;2023-05-29T01:25:46;97584.63;;;10.82;100.00
28665;BME280;15850;47.524;7.814;2023-05-29T01:28:20;97477.75;;;10.08;100.00
28665;BME280;15850;47.524;7.814;2023-05-29T01:30:46;96930.66;;;6.45;100.00
28665;BME280;15850;47.524;7.814;2023-05-29T01:33:12;97483.47;;;9.82;100.00
28665;BME280;15850;47.524;7.814;2023-05-29T01:35:38;97434.84;;;9.56;100.00
28665;BME280;15850;47.524;7.814;2023-05-29T01:38:03;97579.19;;;10.45;100.00
28665;BME280;15850;47.524;7.814;2023-05-29T01:40:29;97587.56;;;10.52;100.00
28665;BME280;15850;47.524;7.814;2023-05-29T01:42:54;97417.13;;;9.25;100.00
28665;BME280;15850;47.524;7.814;2023-05-29T01:45:22;97582.13;;;10.52;100.00
28665;BME280;15850;47.524;7.814;2023-05-29T01:47:48;97529.94;;;10.01;100.00
28665;BME280;15850;47.524;7.814;2023-05-29T01:50:15;97577.25;;;10.46;100.00
28665;BME280;15850;47.524;7.814;2023-05-29T01:52:43;97593.69;;;10.37;100.00
28665;BME280;15850;47.524;7.814;2023-05-29T01:55:08;97352.28;;;8.78;100.00
28665;BME280;15850;47.524;7.814;2023-05-29T01:57:35;97593.47;;;10.42;100.00
28665;BME280;15850;47.524;7.814;2023-05-29T02:00:02;97593.84;;;10.20;100.00
28665;BME280;15850;47.524;7.814;2023-05-29T02:02:29;97361.63;;;8.68;100.00
28665;BME280;15850;47.524;7.814;2023-05-29T02:04:54;97578.81;;;9.89;100.00
28665;BME280;15850;47.524;7.814;2023-05-29T02:07:20;97587.97;;;10.18;100.00
28665;BME280;15850;47.524;7.814;2023-05-29T02:09:45;97583.28;;;10.06;100.00
28665;BME280;15850;47.524;7.814;2023-05-29T02:12:11;97577.81;;;9.94;100.00
28665;BME280;15850;47.524;7.814;2023-05-29T02:14:36;97586.69;;;10.15;100.00
28665;BME280;15850;47.524;7.814;2023-05-29T02:17:02;97579.59;;;9.77;100.00
28665;BME280;15850;47.524;7.814;2023-05-29T02:19:29;97550.06;;;9.55;100.00
28665;BME280;15850;47.524;7.814;2023-05-29T02:21:54;97578.91;;;9.80;100.00
28665;BME280;15850;47.524;7.814;2023-05-29T02:24:20;97386.22;;;8.42;100.00
28665;BME280;15850;47.524;7.814;2023-05-29T02:26:47;97576.25;;;9.72;100.00
28665;BME280;15850;47.524;7.814;2023-05-29T02:29:13;97572.41;;;9.73;100.00
28665;BME280;15850;47.524;7.814;2023-05-29T02:31:39;97575.91;;;9.73;100.00
28665;BME280;15850;47.524;7.814;2023-05-29T02:34:04;97568.84;;;9.60;100.00
28665;BME280;15850;47.524;7.814;2023-05-29T02:36:31;97466.66;;;8.80;100.00
28665;BME280;15850;47.524;7.814;2023-05-29T02:38:57;97559.47;;;9.36;100.00
28665;BME280;15850;47.524;7.814;2023-05-29T02:41:23;97553.50;;;9.43;100.00
28665;BME280;15850;47.524;7.814;2023-05-29T02:43:49;97521.00;;;9.34;100.00
28665;BME280;15850;47.524;7.814;2023-05-29T02:46:15;97398.00;;;8.46;100.00
28665;BME280;15850;47.524;7.814;2023-05-29T02:48:41;97576.97;;;9.48;100.00
28665;BME280;15850;47.524;7.814;2023-05-29T02:51:06;97588.88;;;9.55;100.00
28665;BME280;15850;47.524;7.814;2023-05-29T02:53:33;97397.97;;;7.96;100.00
28665;BME280;15850;47.524;7.814;2023-05-29T02:55:59;97591.94;;;9.03;100.00
28665;BME280;15850;47.524;7.814;2023-05-29T02:58:24;97591.47;;;9.31;100.00
28665;BME280;15850;47.524;7.814;2023-05-29T03:00:50;97340.81;;;7.59;100.00
28665;BME280;15850;47.524;7.814;2023-05-29T03:03:15;97591.50;;;9.43;100.00
28665;BME280;15850;47.524;7.814;2023-05-29T03:05:41;97189.75;;;6.85;100.00
28665;BME280;15850;47.524;7.814;2023-05-29T03:08:06;97604.22;;;9.30;100.00
28665;BME280;15850;47.524;7.814;2023-05-29T03:10:33;97560.00;;;9.09;100.00
28665;BME280;15850;47.524;7.814;2023-05-29T03:12:59;97598.13;;;9.33;100.00
28665;BME280;15850;47.524;7.814;2023-05-29T03:15:25;97595.28;;;9.30;100.00
28665;BME280;15850;47.524;7.814;2023-05-29T03:17:50;97590.31;;;9.11;100.00
28665;BME280;15850;47.524;7.814;2023-05-29T03:20:20;97584.69;;;8.95;100.00
28665;BME280;15850;47.524;7.814;2023-05-29T03:22:47;97590.06;;;9.25;100.00
28665;BME280;15850;47.524;7.814;2023-05-29T03:25:13;97527.91;;;8.60;100.00
28665;BME280;15850;47.524;7.814;2023-05-29T03:27:40;97595.28;;;9.30;100.00
28665;BME280;15850;47.524;7.814;2023-05-29T03:30:12;97422.31;;;8.05;100.00
28665;BME280;15850;47.524;7.814;2023-05-29T03:32:38;97396.41;;;7.86;100.00
28665;BME280;15850;47.524;7.814;2023-05-29T03:35:04;97597.34;;;9.12;100.00
28665;BME280;15850;47.524;7.814;2023-05-29T03:37:30;97518.66;;;8.61;100.00
28665;BME280;15850;47.524;7.814;2023-05-29T03:39:56;97269.88;;;6.98;100.00
28665;BME280;15850;47.524;7.814;2023-05-29T03:42:22;97600.38;;;9.10;100.00
28665;BME280;15850;47.524;7.814;2023-05-29T03:44:51;97598.78;;;9.09;100.00
28665;BME280;15850;47.524;7.814;2023-05-29T03:47:16;97502.03;;;8.33;100.00
28665;BME280;15850;47.524;7.814;2023-05-29T03:49:42;97602.34;;;8.72;100.00
28665;BME280;15850;47.524;7.814;2023-05-29T03:52:07;97600.44;;;8.72;100.00
28665;BME280;15850;47.524;7.814;2023-05-29T03:54:33;97372.34;;;7.55;100.00
28665;BME280;15850;47.524;7.814;2023-05-29T03:57:01;97599.25;;;9.11;100.00
28665;BME280;15850;47.524;7.814;2023-05-29T03:59:27;97599.66;;;9.01;100.00
28665;BME280;15850;47.524;7.814;2023-05-29T04:01:54;97601.91;;;9.20;100.00
28665;BME280;15850;47.524;7.814;2023-05-29T04:04:20;97117.50;;;6.08;100.00
28665;BME280;15850;47.524;7.814;2023-05-29T04:06:45;97601.28;;;9.44;100.00
28665;BME280;15850;47.524;7.814;2023-05-29T04:09:11;97596.94;;;9.43;100.00
28665;BME280;15850;47.524;7.814;2023-05-29T04:11:36;97605.31;;;9.38;100.00
28665;BME280;15850;47.524;7.814;2023-05-29T04:14:02;97536.50;;;8.62;100.00
28665;BME280;15850;47.524;7.814;2023-05-29T04:16:28;97609.47;;;9.35;100.00
28665;BME280;15850;47.524;7.814;2023-05-29T04:18:55;97551.47;;;9.19;100.00
28665;BME280;15850;47.524;7.814;2023-05-29T04:21:24;97611.72;;;9.54;100.00
28665;BME280;15850;47.524;7.814;2023-05-29T04:23:49;97570.88;;;9.51;100.00
28665;BME280;15850;47.524;7.814;2023-05-29T04:26:15;97621.19;;;9.90;100.00
28665;BME280;15850;47.524;7.814;2023-05-29T04:28:41;97638.84;;;9.96;100.00
28665;BME280;15850;47.524;7.814;2023-05-29T04:31:06;97644.81;;;10.10;100.00
28665;BME280;15850;47.524;7.814;2023-05-29T04:33:33;97362.25;;;8.23;100.00
28665;BME280;15850;47.524;7.814;2023-05-29T04:36:00;97598.63;;;9.89;100.00
28665;BME280;15850;47.524;7.814;2023-05-29T04:38:25;97394.44;;;8.76;100.00
28665;BME280;15850;47.524;7.814;2023-05-29T04:40:52;97585.91;;;10.15;100.00
28665;BME280;15850;47.524;7.814;2023-05-29T04:43:19;97649.50;;;10.68;100.00
28665;BME280;15850;47.524;7.814;2023-05-29T04:46:04;97634.63;;;10.65;100.00
28665;BME280;15850;47.524;7.814;2023-05-29T04:48:33;97617.06;;;10.75;100.00
28665;BME280;15850;47.524;7.814;2023-05-29T04:51:00;97648.38;;;11.05;100.00
28665;BME280;15850;47.524;7.814;2023-05-29T04:53:25;97658.34;;;11.01;100.00
28665;BME280;15850;47.524;7.814;2023-05-29T04:55:51;97615.72;;;10.81;100.00
28665;BME280;15850;47.524;7.814;2023-05-29T04:58:17;97654.50;;;11.15;100.00
28665;BME280;15850;47.524;7.814;2023-05-29T05:00:43;97664.03;;;11.33;100.00
28665;BME280;15850;47.524;7.814;2023-05-29T05:03:08;97665.34;;;11.51;100.00
28665;BME280;15850;47.524;7.814;2023-05-29T05:05:34;97579.19;;;11.07;100.00
28665;BME280;15850;47.524;7.814;2023-05-29T05:08:02;97663.16;;;11.69;100.00
28665;BME280;15850;47.524;7.814;2023-05-29T05:10:28;97662.47;;;11.85;100.00
28665;BME280;15850;47.524;7.814;2023-05-29T05:12:54;97667.53;;;11.98;100.00
28665;BME280;15850;47.524;7.814;2023-05-29T05:15:21;97671.66;;;11.92;100.00
28665;BME280;15850;47.524;7.814;2023-05-29T05:17:46;97672.88;;;11.95;100.00
28665;BME280;15850;47.524;7.814;2023-05-29T05:20:12;97664.53;;;12.16;100.00
28665;BME280;15850;47.524;7.814;2023-05-29T05:22:38;97664.94;;;12.18;100.00
28665;BME280;15850;47.524;7.814;2023-05-29T05:25:06;97642.06;;;12.07;100.00
28665;BME280;15850;47.524;7.814;2023-05-29T05:27:33;97659.53;;;12.34;100.00
28665;BME280;15850;47.524;7.814;2023-05-29T05:30:00;97656.13;;;12.37;100.00
28665;BME280;15850;47.524;7.814;2023-05-29T05:32:25;97597.72;;;12.10;100.00
28665;BME280;15850;47.524;7.814;2023-05-29T05:34:59;97582.16;;;12.10;100.00
28665;BME280;15850;47.524;7.814;2023-05-29T05:37:24;97658.16;;;12.56;100.00
28665;BME280;15850;47.524;7.814;2023-05-29T05:39:50;97660.72;;;12.80;100.00
28665;BME280;15850;47.524;7.814;2023-05-29T05:42:17;97663.09;;;12.98;100.00
28665;BME280;15850;47.524;7.814;2023-05-29T05:44:48;97629.28;;;12.86;96.67
28665;BME280;15850;47.524;7.814;2023-05-29T05:47:14;97236.41;;;10.42;98.85
28665;BME280;15850;47.524;7.814;2023-05-29T05:49:40;97673.84;;;13.22;100.00
28665;BME280;15850;47.524;7.814;2023-05-29T05:52:06;97666.63;;;13.46;96.94
28665;BME280;15850;47.524;7.814;2023-05-29T05:54:32;97662.66;;;13.27;99.55
28665;BME280;15850;47.524;7.814;2023-05-29T05:56:57;97563.88;;;12.74;93.42
28665;BME280;15850;47.524;7.814;2023-05-29T05:59:25;97679.47;;;13.61;93.26
28665;BME280;15850;47.524;7.814;2023-05-29T06:01:52;97674.13;;;13.68;92.95
28665;BME280;15850;47.524;7.814;2023-05-29T06:04:18;97603.53;;;13.19;95.83
28665;BME280;15850;47.524;7.814;2023-05-29T06:06:44;97633.69;;;13.58;94.32
28665;BME280;15850;47.524;7.814;2023-05-29T06:09:10;97693.16;;;14.19;92.64
28665;BME280;15850;47.524;7.814;2023-05-29T06:11:36;97657.19;;;13.98;90.79
28665;BME280;15850;47.524;7.814;2023-05-29T06:14:02;97685.25;;;14.14;91.42
28665;BME280;15850;47.524;7.814;2023-05-29T06:16:30;97663.84;;;14.20;88.10
28665;BME280;15850;47.524;7.814;2023-05-29T06:18:56;97395.03;;;12.57;87.23
28665;BME280;15850;47.524;7.814;2023-05-29T06:21:23;97665.06;;;14.42;83.97
28665;BME280;15850;47.524;7.814;2023-05-29T06:23:52;97683.69;;;14.75;81.31
28665;BME280;15850;47.524;7.814;2023-05-29T06:26:17;97682.63;;;14.83;85.37
28665;BME280;15850;47.524;7.814;2023-05-29T06:28:43;97652.00;;;14.74;82.16
28665;BME280;15850;47.524;7.814;2023-05-29T06:31:08;97651.19;;;14.73;86.96
28665;BME280;15850;47.524;7.814;2023-05-29T06:33:36;97688.25;;;15.13;84.03
28665;BME280;15850;47.524;7.814;2023-05-29T06:36:04;97691.84;;;15.17;86.21
28665;BME280;15850;47.524;7.814;2023-05-29T06:38:29;97693.13;;;15.23;88.48
28665;BME280;15850;47.524;7.814;2023-05-29T06:40:55;97694.13;;;15.38;83.69
28665;BME280;15850;47.524;7.814;2023-05-29T06:43:21;97698.44;;;15.39;87.76
28665;BME280;15850;47.524;7.814;2023-05-29T06:45:47;97695.69;;;15.66;85.94
28665;BME280;15850;47.524;7.814;2023-05-29T06:48:13;97694.78;;;15.81;80.87
28665;BME280;15850;47.524;7.814;2023-05-29T06:50:40;97703.88;;;15.89;83.10
28665;BME280;15850;47.524;7.814;2023-05-29T06:53:32;97698.13;;;15.97;78.22
28665;BME280;15850;47.524;7.814;2023-05-29T06:55:59;97697.28;;;15.93;79.27
28665;BME280;15850;47.524;7.814;2023-05-29T06:58:24;97697.00;;;16.02;83.71
28665;BME280;15850;47.524;7.814;2023-05-29T07:00:50;97697.28;;;16.24;79.16
28665;BME280;15850;47.524;7.814;2023-05-29T07:03:27;97635.56;;;15.77;74.72
28665;BME280;15850;47.524;7.814;2023-05-29T07:05:55;97703.72;;;16.38;77.12
28665;BME280;15850;47.524;7.814;2023-05-29T07:08:20;97701.31;;;16.33;74.84
28665;BME280;15850;47.524;7.814;2023-05-29T07:10:46;97700.50;;;16.29;75.56
28665;BME280;15850;47.524;7.814;2023-05-29T07:13:15;97698.72;;;16.48;82.18
28665;BME280;15850;47.524;7.814;2023-05-29T07:15:40;97702.09;;;16.71;79.61
28665;BME280;15850;47.524;7.814;2023-05-29T07:18:07;97699.59;;;16.89;73.96
28665;BME280;15850;47.524;7.814;2023-05-29T07:20:33;97577.72;;;15.92;73.39
28665;BME280;15850;47.524;7.814;2023-05-29T07:23:00;97658.88;;;16.64;72.57
28665;BME280;15850;47.524;7.814;2023-05-29T07:25:25;97707.06;;;16.92;73.60
28665;BME280;15850;47.524;7.814;2023-05-29T07:27:51;97667.22;;;16.38;76.42
28665;BME280;15850;47.524;7.814;2023-05-29T07:30:17;97347.25;;;14.47;75.98
28665;BME280;15850;47.524;7.814;2023-05-29T07:32:44;97706.50;;;17.17;76.65
28665;BME280;15850;47.524;7.814;2023-05-29T07:35:09;97704.72;;;16.94;73.88
28665;BME280;15850;47.524;7.814;2023-05-29T07:37:35;97701.06;;;17.24;76.38
28665;BME280;15850;47.524;7.814;2023-05-29T07:40:03;97703.13;;;17.41;72.64
28665;BME280;15850;47.524;7.814;2023-05-29T07:42:47;97698.84;;;17.44;73.38
28665;BME280;15850;47.524;7.814;2023-05-29T07:45:13;97708.75;;;17.55;71.52
28665;BME280;15850;47.524;7.814;2023-05-29T07:47:38;97710.06;;;17.72;72.26
28665;BME280;15850;47.524;7.814;2023-05-29T07:50:05;97705.63;;;17.60;68.45
28665;BME280;15850;47.524;7.814;2023-05-29T07:52:31;97678.06;;;17.46;68.95
28665;BME280;15850;47.524;7.814;2023-05-29T07:54:56;97714.28;;;17.59;68.84
28665;BME280;15850;47.524;7.814;2023-05-29T07:57:24;97707.44;;;17.90;65.74
28665;BME280;15850;47.524;7.814;2023-05-29T07:59:51;97703.47;;;17.84;62.80
28665;BME280;15850;47.524;7.814;2023-05-29T08:02:17;97701.91;;;17.87;63.12
28665;BME280;15850;47.524;7.814;2023-05-29T08:05:11;97608.84;;;17.41;60.99
28665;BME280;15850;47.524;7.814;2023-05-29T08:07:37;97673.47;;;17.68;61.74
28665;BME280;15850;47.524;7.814;2023-05-29T08:10:03;97708.25;;;17.98;62.02
28665;BME280;15850;47.524;7.814;2023-05-29T08:12:30;97709.09;;;18.09;62.25
28665;BME280;15850;47.524;7.814;2023-05-29T08:14:57;97637.38;;;17.77;58.47
28665;BME280;15850;47.524;7.814;2023-05-29T08:17:23;97596.84;;;17.70;60.11
28665;BME280;15850;47.524;7.814;2023-05-29T08:19:48;97701.03;;;18.59;59.17
28665;BME280;15850;47.524;7.814;2023-05-29T08:22:14;97707.72;;;18.54;60.04
28665;BME280;15850;47.524;7.814;2023-05-29T08:24:39;97698.28;;;18.63;56.36
28665;BME280;15850;47.524;7.814;2023-05-29T08:27:05;97701.47;;;18.72;58.19
28665;BME280;15850;47.524;7.814;2023-05-29T08:29:32;97667.44;;;18.18;56.40
28665;BME280;15850;47.524;7.814;2023-05-29T08:31:57;97704.56;;;18.60;57.13
28665;BME280;15850;47.524;7.814;2023-05-29T08:34:23;97709.00;;;18.89;56.83
28665;BME280;15850;47.524;7.814;2023-05-29T08:36:48;97548.25;;;18.14;57.32
28665;BME280;15850;47.524;7.814;2023-05-29T08:39:14;97703.88;;;18.95;57.13
28665;BME280;15850;47.524;7.814;2023-05-29T08:41:45;97704.66;;;18.92;59.75
28665;BME280;15850;47.524;7.814;2023-05-29T08:44:16;97703.47;;;18.96;58.59
28665;BME280;15850;47.524;7.814;2023-05-29T08:46:46;97670.81;;;18.98;55.85
28665;BME280;15850;47.524;7.814;2023-05-29T08:49:14;97704.28;;;19.54;54.75
28665;BME280;15850;47.524;7.814;2023-05-29T08:51:43;97675.53;;;19.44;54.53
28665;BME280;15850;47.524;7.814;2023-05-29T08:54:14;97436.94;;;17.86;54.06
28665;BME280;15850;47.524;7.814;2023-05-29T08:56:39;97703.91;;;19.77;53.25
28665;BME280;15850;47.524;7.814;2023-05-29T08:59:05;97558.53;;;18.52;55.10
28665;BME280;15850;47.524;7.814;2023-05-29T09:01:33;97703.50;;;19.68;53.03
28665;BME280;15850;47.524;7.814;2023-05-29T09:04:00;97615.28;;;19.18;55.12
28665;BME280;15850;47.524;7.814;2023-05-29T09:06:25;97669.59;;;19.42;55.08
28665;BME280;15850;47.524;7.814;2023-05-29T09:08:51;97684.19;;;19.71;53.44
28665;BME280;15850;47.524;7.814;2023-05-29T09:11:17;97677.78;;;20.00;54.06
28665;BME280;15850;47.524;7.814;2023-05-29T09:13:42;97708.09;;;20.25;52.20
28665;BME280;15850;47.524;7.814;2023-05-29T09:16:08;97704.94;;;20.30;50.97
28665;BME280;15850;47.524;7.814;2023-05-29T09:18:34;97686.81;;;20.18;51.65
28665;BME280;15850;47.524;7.814;2023-05-29T09:21:06;97664.41;;;19.91;50.24
28665;BME280;15850;47.524;7.814;2023-05-29T09:23:31;97704.56;;;20.21;52.30
28665;BME280;15850;47.524;7.814;2023-05-29T09:25:57;97704.47;;;20.42;53.31
28665;BME280;15850;47.524;7.814;2023-05-29T09:28:23;97665.44;;;20.29;51.26
28665;BME280;15850;47.524;7.814;2023-05-29T09:30:48;97706.84;;;20.44;49.42
28665;BME280;15850;47.524;7.814;2023-05-29T09:33:15;97702.97;;;20.23;50.19
28665;BME280;15850;47.524;7.814;2023-05-29T09:35:42;97672.19;;;20.21;48.96
28665;BME280;15850;47.524;7.814;2023-05-29T09:38:11;97574.63;;;19.51;48.47
28665;BME280;15850;47.524;7.814;2023-05-29T09:40:38;97677.66;;;20.35;50.44
28665;BME280;15850;47.524;7.814;2023-05-29T09:43:06;97714.78;;;21.04;51.65
28665;BME280;15850;47.524;7.814;2023-05-29T09:45:38;97607.34;;;20.44;48.49
28665;BME280;15850;47.524;7.814;2023-05-29T09:48:05;97676.25;;;20.83;48.83
28665;BME280;15850;47.524;7.814;2023-05-29T09:50:31;97706.34;;;21.22;49.19
28665;BME280;15850;47.524;7.814;2023-05-29T09:52:56;97673.56;;;21.21;47.97
28665;BME280;15850;47.524;7.814;2023-05-29T09:55:25;97688.09;;;21.32;48.76
28665;BME280;15850;47.524;7.814;2023-05-29T09:57:50;97681.03;;;21.27;47.66
28665;BME280;15850;47.524;7.814;2023-05-29T10:00:17;97672.28;;;21.40;48.39
28665;BME280;15850;47.524;7.814;2023-05-29T10:02:43;97404.53;;;19.85;47.28
28665;BME280;15850;47.524;7.814;2023-05-29T10:05:08;97427.56;;;20.20;46.17
28665;BME280;15850;47.524;7.814;2023-05-29T10:07:35;97686.88;;;21.81;46.05
28665;BME280;15850;47.524;7.814;2023-05-29T10:10:02;97683.78;;;21.76;45.34
28665;BME280;15850;47.524;7.814;2023-05-29T10:12:31;97640.38;;;21.62;45.02
28665;BME280;15850;47.524;7.814;2023-05-29T10:14:59;97552.34;;;21.08;44.99
28665;BME280;15850;47.524;7.814;2023-05-29T10:17:30;97521.66;;;20.99;46.68
28665;BME280;15850;47.524;7.814;2023-05-29T10:19:58;97657.38;;;22.02;46.74
28665;BME280;15850;47.524;7.814;2023-05-29T10:22:27;97194.25;;;19.00;45.44
28665;BME280;15850;47.524;7.814;2023-05-29T10:24:53;97651.38;;;22.07;45.90
28665;BME280;15850;47.524;7.814;2023-05-29T10:27:20;97300.28;;;20.04;49.62
28665;BME280;15850;47.524;7.814;2023-05-29T10:29:49;97062.28;;;19.06;46.65
28665;BME280;15850;47.524;7.814;2023-05-29T10:32:22;97675.53;;;22.98;41.62
28665;BME280;15850;47.524;7.814;2023-05-29T10:34:56;97544.91;;;22.39;42.71
28665;BME280;15850;47.524;7.814;2023-05-29T10:37:31;97652.38;;;23.09;41.60
28665;BME280;15850;47.524;7.814;2023-05-29T10:40:03;97347.59;;;21.46;37.34
28665;BME280;15850;47.524;7.814;2023-05-29T10:42:43;97638.63;;;23.49;38.62
28665;BME280;15850;47.524;7.814;2023-05-29T10:45:11;97652.16;;;23.66;36.31
28665;BME280;15850;47.524;7.814;2023-05-29T10:47:36;97629.72;;;23.57;36.75
28665;BME280;15850;47.524;7.814;2023-05-29T10:50:02;97310.09;;;21.42;36.20
28665;BME280;15850;47.524;7.814;2023-05-29T10:52:30;97652.13;;;23.70;36.75
28665;BME280;15850;47.524;7.814;2023-05-29T10:54:56;97473.25;;;22.61;36.93
28665;BME280;15850;47.524;7.814;2023-05-29T10:57:22;97556.75;;;23.13;38.15
28665;BME280;15850;47.524;7.814;2023-05-29T10:59:48;97648.25;;;23.87;35.69
28665;BME280;15850;47.524;7.814;2023-05-29T11:02:18;97547.28;;;23.11;37.20
28665;BME280;15850;47.524;7.814;2023-05-29T11:04:44;97667.75;;;24.24;35.33
28665;BME280;15850;47.524;7.814;2023-05-29T11:07:32;97649.81;;;24.08;33.62
28665;BME280;15850;47.524;7.814;2023-05-29T11:10:11;97665.25;;;23.89;34.14
28665;BME280;15850;47.524;7.814;2023-05-29T11:12:55;97622.69;;;23.53;35.83
28665;BME280;15850;47.524;7.814;2023-05-29T11:15:21;97648.44;;;24.17;35.32
28665;BME280;15850;47.524;7.814;2023-05-29T11:17:48;97486.38;;;23.04;35.52
28665;BME280;15850;47.524;7.814;2023-05-29T11:20:20;97617.25;;;23.89;35.65
28665;BME280;15850;47.524;7.814;2023-05-29T11:23:00;97599.50;;;24.03;36.88
28665;BME280;15850;47.524;7.814;2023-05-29T11:25:26;97651.03;;;24.27;34.12
28665;BME280;15850;47.524;7.814;2023-05-29T11:27:52;97476.81;;;23.08;34.66
28665;BME280;15850;47.524;7.814;2023-05-29T11:30:18;97351.31;;;22.57;35.30
28665;BME280;15850;47.524;7.814;2023-05-29T11:32:44;97629.81;;;24.53;35.05
28665;BME280;15850;47.524;7.814;2023-05-29T11:35:12;97483.28;;;23.61;36.65
28665;BME280;15850;47.524;7.814;2023-05-29T11:37:39;97541.34;;;24.12;34.82
28665;BME280;15850;47.524;7.814;2023-05-29T11:40:06;97476.50;;;23.62;34.51
28665;BME280;15850;47.524;7.814;2023-05-29T11:42:32;97289.78;;;22.46;32.96
28665;BME280;15850;47.524;7.814;2023-05-29T11:45:10;97633.09;;;24.84;33.26
28665;BME280;15850;47.524;7.814;2023-05-29T11:47:50;97558.72;;;24.52;32.81
28665;BME280;15850;47.524;7.814;2023-05-29T11:50:21;97633.69;;;25.08;32.28
28665;BME280;15850;47.524;7.814;2023-05-29T11:52:47;97320.06;;;22.96;30.26
28665;BME280;15850;47.524;7.814;2023-05-29T11:55:13;97515.00;;;24.00;30.11
28665;BME280;15850;47.524;7.814;2023-05-29T11:57:39;97636.22;;;25.03;30.38
28665;BME280;15850;47.524;7.814;2023-05-29T12:00:12;97632.84;;;25.28;30.71
28665;BME280;15850;47.524;7.814;2023-05-29T12:02:37;97574.28;;;24.66;31.60
28665;BME280;15850;47.524;7.814;2023-05-29T12:05:04;97523.34;;;24.69;31.76
28665;BME280;15850;47.524;7.814;2023-05-29T12:07:32;97624.66;;;25.37;31.27
28665;BME280;15850;47.524;7.814;2023-05-29T12:10:08;97605.25;;;25.34;30.02
28665;BME280;15850;47.524;7.814;2023-05-29T12:12:34;97361.84;;;23.98;32.88
28665;BME280;15850;47.524;7.814;2023-05-29T12:14:59;97569.25;;;25.55;32.05
28665;BME280;15850;47.524;7.814;2023-05-29T12:17:25;97465.00;;;24.82;32.46
28665;BME280;15850;47.524;7.814;2023-05-29T12:19:51;97565.75;;;25.68;32.16
28665;BME280;15850;47.524;7.814;2023-05-29T12:22:17;97452.72;;;24.96;31.23
28665;BME280;15850;47.524;7.814;2023-05-29T12:24:44;97623.59;;;25.93;30.53
28665;BME280;15850;47.524;7.814;2023-05-29T12:27:09;97624.41;;;26.06;29.26
28665;BME280;15850;47.524;7.814;2023-05-29T12:29:35;97621.31;;;26.17;28.26
28665;BME280;15850;47.524;7.814;2023-05-29T12:32:02;97613.44;;;25.86;28.08
28665;BME280;15850;47.524;7.814;2023-05-29T12:34:36;97263.66;;;23.72;28.48
28665;BME280;15850;47.524;7.814;2023-05-29T12:37:05;97630.00;;;26.06;28.93
28665;BME280;15850;47.524;7.814;2023-05-29T12:39:31;97445.91;;;24.68;30.49
28665;BME280;15850;47.524;7.814;2023-05-29T12:41:58;97325.38;;;23.96;30.97
28665;BME280;15850;47.524;7.814;2023-05-29T12:44:24;97630.88;;;26.03;29.79
28665;BME280;15850;47.524;7.814;2023-05-29T12:46:56;97451.09;;;25.27;29.06
28665;BME280;15850;47.524;7.814;2023-05-29T12:49:22;97441.97;;;25.27;28.13
28665;BME280;15850;47.524;7.814;2023-05-29T12:51:47;97625.50;;;26.51;29.06
28665;BME280;15850;47.524;7.814;2023-05-29T12:54:14;97581.84;;;26.44;28.23
28665;BME280;15850;47.524;7.814;2023-05-29T12:56:41;97627.41;;;26.66;26.92
28665;BME280;15850;47.524;7.814;2023-05-29T12:59:11;97441.47;;;25.58;29.34